createdAt,value
2022-10-30T00:02:02.940Z,100660.56
2022-10-30T00:07:04.372Z,100656.19
2022-10-30T00:12:05.828Z,100649.50
2022-10-30T00:17:07.174Z,100656.16
2022-10-30T00:22:09.523Z,100646.13
2022-10-30T00:27:10.881Z,100645.69
2022-10-30T00:32:12.273Z,100644.00
2022-10-30T00:37:13.673Z,100638.13
2022-10-30T00:42:16.601Z,100648.13
2022-10-30T00:47:34.221Z,100640.19
2022-10-30T00:52:40.451Z,100651.84
2022-10-30T00:57:42.800Z,100643.91
2022-10-30T01:02:44.682Z,100647.22
2022-10-30T01:07:46.058Z,100635.13
2022-10-30T01:12:49.599Z,100635.69
2022-10-30T01:18:21.793Z,100646.69
2022-10-30T01:23:41.738Z,100632.97
2022-10-30T01:29:01.857Z,100625.03
2022-10-30T01:34:09.843Z,100628.16
2022-10-30T01:39:15.803Z,100629.78
2022-10-30T01:44:28.475Z,100627.47
2022-10-30T01:50:03.205Z,100624.13
2022-10-30T01:55:09.292Z,100613.28
2022-10-30T02:00:13.770Z,100618.66
2022-10-30T02:05:27.013Z,100617.59
2022-10-30T02:10:30.494Z,100620.94
2022-10-30T02:15:32.225Z,100626.53
2022-10-30T02:20:33.650Z,100637.91
2022-10-30T02:25:35.137Z,100629.56
2022-10-30T02:30:36.830Z,100634.16
2022-10-30T02:35:38.199Z,100621.03
2022-10-30T02:40:39.537Z,100631.66
2022-10-30T02:45:40.866Z,100633.53
2022-10-30T02:50:42.202Z,100638.94
2022-10-30T02:55:43.593Z,100637.28
2022-10-30T03:00:44.963Z,100638.75
2022-10-30T03:05:46.281Z,100641.44
2022-10-30T03:10:47.608Z,100633.16
2022-10-30T03:15:48.941Z,100620.25
2022-10-30T03:20:50.320Z,100614.84
2022-10-30T03:25:53.923Z,100614.78
2022-10-30T03:31:00.420Z,100628.44
2022-10-30T03:36:02.103Z,100636.97
2022-10-30T03:41:04.405Z,100635.22
2022-10-30T03:46:05.835Z,100636.22
2022-10-30T03:51:07.237Z,100634.41
2022-10-30T03:56:09.943Z,100628.22
2022-10-30T04:01:11.541Z,100626.97
2022-10-30T04:06:13.034Z,100628.84
2022-10-30T04:11:14.433Z,100633.81
2022-10-30T04:16:15.835Z,100633.78
2022-10-30T04:21:17.258Z,100629.66
2022-10-30T04:26:18.593Z,100639.19
2022-10-30T04:31:19.990Z,100637.13
2022-10-30T04:36:24.139Z,100629.84
2022-10-30T04:41:25.648Z,100627.31
2022-10-30T04:46:27.037Z,100630.44
2022-10-30T04:51:28.434Z,100635.63
2022-10-30T04:56:29.848Z,100626.69
2022-10-30T05:01:31.271Z,100622.66
2022-10-30T05:06:33.193Z,100623.75
2022-10-30T05:11:34.590Z,100626.88
2022-10-30T05:16:36.016Z,100620.44
2022-10-30T05:21:37.498Z,100631.72
2022-10-30T05:26:38.840Z,100621.09
2022-10-30T05:31:40.645Z,100616.28
2022-10-30T05:36:42.018Z,100621.41
2022-10-30T05:41:43.398Z,100620.16
2022-10-30T05:46:44.880Z,100617.63
2022-10-30T05:51:46.337Z,100610.94
2022-10-30T05:56:47.669Z,100622.06
2022-10-30T06:01:48.993Z,100624.50
2022-10-30T06:06:50.341Z,100621.59
2022-10-30T06:11:52.758Z,100640.72
2022-10-30T06:16:54.090Z,100634.50
2022-10-30T06:21:55.445Z,100641.13
2022-10-30T06:26:56.894Z,100637.16
2022-10-30T06:31:59.787Z,100639.22
2022-10-30T06:37:03.741Z,100651.44
2022-10-30T06:42:05.317Z,100660.75
2022-10-30T06:47:06.658Z,100653.88
2022-10-30T06:52:08.096Z,100655.56
2022-10-30T06:57:09.441Z,100654.97
2022-10-30T07:02:11.507Z,100661.84
2022-10-30T07:07:13.846Z,100650.66
2022-10-30T07:12:15.393Z,100651.94
2022-10-30T07:17:16.756Z,100655.94
2022-10-30T07:22:18.531Z,100656.63
2022-10-30T07:27:19.865Z,100662.78
2022-10-30T07:32:21.313Z,100650.13
2022-10-30T07:37:22.633Z,100659.59
2022-10-30T07:42:24.086Z,100675.09
2022-10-30T07:47:25.455Z,100672.50
2022-10-30T07:52:31.302Z,100676.19
2022-10-30T07:57:40.629Z,100673.97
2022-10-30T08:02:42.486Z,100670.94
2022-10-30T08:07:46.541Z,100674.81
2022-10-30T08:12:48.187Z,100677.16
2022-10-30T08:17:50.666Z,100682.00
2022-10-30T08:22:57.204Z,100683.53
2022-10-30T08:28:04.836Z,100684.16
2022-10-30T08:33:10.691Z,100688.16
2022-10-30T08:38:11.985Z,100678.97
2022-10-30T08:43:14.069Z,100679.66
2022-10-30T08:48:16.514Z,100668.97
2022-10-30T08:53:18.242Z,100673.56
2022-10-30T08:58:19.595Z,100678.75
2022-10-30T09:03:20.921Z,100679.34
2022-10-30T09:08:22.324Z,100669.47
2022-10-30T09:13:24.579Z,100667.28
2022-10-30T09:18:25.949Z,100665.34
2022-10-30T09:23:27.287Z,100660.47
2022-10-30T09:28:28.631Z,100653.88
2022-10-30T09:33:30.060Z,100661.78
2022-10-30T09:38:31.394Z,100666.19
2022-10-30T09:43:55.110Z,100660.09
2022-10-30T09:49:20.210Z,100654.88
2022-10-30T09:54:37.071Z,100663.88
2022-10-30T10:00:01.344Z,100656.72
2022-10-30T10:05:22.983Z,100657.19
2022-10-30T10:10:44.220Z,100649.25
2022-10-30T10:15:51.624Z,100662.28
2022-10-30T10:20:58.165Z,100658.22
2022-10-30T10:26:14.153Z,100647.69
2022-10-30T10:31:38.170Z,100649.88
2022-10-30T10:36:58.706Z,100639.16
2022-10-30T10:42:24.317Z,100649.28
2022-10-30T10:47:39.701Z,100634.09
2022-10-30T10:52:47.530Z,100636.31
2022-10-30T10:57:51.227Z,100631.19
2022-10-30T11:03:09.306Z,100631.91
2022-10-30T11:08:17.127Z,100611.22
2022-10-30T11:13:18.486Z,100613.41
2022-10-30T11:18:19.850Z,100612.19
2022-10-30T11:23:31.167Z,100601.78
2022-10-30T11:28:42.376Z,100596.59
2022-10-30T11:33:43.896Z,100600.50
2022-10-30T11:38:45.537Z,100588.38
2022-10-30T11:43:49.115Z,100597.34
2022-10-30T11:48:56.742Z,100589.94
2022-10-30T11:53:58.413Z,100586.34
2022-10-30T11:59:02.883Z,100576.69
2022-10-30T12:04:33.666Z,100578.28
2022-10-30T12:09:45.841Z,100577.25
2022-10-30T12:14:47.313Z,100576.56
2022-10-30T12:19:51.267Z,100571.41
2022-10-30T12:24:53.136Z,100563.66
2022-10-30T12:30:17.720Z,100564.91
2022-10-30T12:35:35.940Z,100555.44
2022-10-30T12:40:43.950Z,100551.44
2022-10-30T12:45:48.796Z,100549.88
2022-10-30T12:51:12.307Z,100552.94
2022-10-30T12:56:19.626Z,100544.97
2022-10-30T13:01:32.403Z,100533.03
2022-10-30T13:06:42.127Z,100530.09
2022-10-30T13:11:52.942Z,100530.63
2022-10-30T13:16:54.318Z,100522.94
2022-10-30T13:22:08.169Z,100525.25
2022-10-30T13:27:28.182Z,100521.50
2022-10-30T13:32:54.578Z,100522.97
2022-10-30T13:38:33.294Z,100527.09
2022-10-30T13:43:49.729Z,100527.94
2022-10-30T13:48:59.901Z,100516.97
2022-10-30T13:54:17.110Z,100518.34
2022-10-30T13:59:47.448Z,100509.78
2022-10-30T14:04:58.833Z,100518.03
2022-10-30T14:10:39.244Z,100525.06
2022-10-30T14:15:43.698Z,100520.31
2022-10-30T14:20:49.874Z,100527.63
2022-10-30T14:26:06.487Z,100519.59
2022-10-30T14:31:33.880Z,100525.22
2022-10-30T14:36:38.503Z,100531.41
2022-10-30T14:41:54.896Z,100541.81
2022-10-30T14:46:59.152Z,100539.91
2022-10-30T14:52:29.883Z,100536.16
2022-10-30T14:57:47.661Z,100536.84
2022-10-30T15:03:06.938Z,100531.22
2022-10-30T15:08:26.374Z,100535.56
2022-10-30T15:13:27.938Z,100536.00
2022-10-30T15:18:31.010Z,100540.75
2022-10-30T15:23:41.804Z,100547.50
2022-10-30T15:28:43.416Z,100548.06
2022-10-30T15:33:44.992Z,100547.25
2022-10-30T15:39:11.331Z,100544.28
2022-10-30T15:49:32.659Z,100547.31
2022-10-30T15:54:34.419Z,100548.72
2022-10-30T15:59:35.962Z,100559.84
2022-10-30T16:04:39.183Z,100565.53
2022-10-30T16:10:01.883Z,100566.50
2022-10-30T16:15:15.887Z,100567.59
2022-10-30T16:20:17.682Z,100565.03
2022-10-30T16:25:21.373Z,100558.84
2022-10-30T16:30:23.787Z,100563.28
2022-10-30T16:35:26.591Z,100566.78
2022-10-30T16:40:29.066Z,100561.41
2022-10-30T16:45:33.878Z,100566.97
2022-10-30T16:50:37.257Z,100578.41
2022-10-30T16:55:38.779Z,100584.44
2022-10-30T17:00:42.079Z,100587.22
2022-10-30T17:05:43.597Z,100592.69
2022-10-30T17:10:47.889Z,100591.63
2022-10-30T17:15:49.315Z,100596.81
2022-10-30T17:21:11.587Z,100603.75
2022-10-30T17:26:13.726Z,100620.88
2022-10-30T17:31:18.198Z,100619.28
2022-10-30T17:36:19.984Z,100619.78
2022-10-30T17:41:21.388Z,100624.22
2022-10-30T17:46:25.606Z,100634.38
2022-10-30T17:51:27.115Z,100640.50
2022-10-30T17:56:31.762Z,100635.72
2022-10-30T18:01:33.386Z,100645.81
2022-10-30T18:06:34.817Z,100651.25
2022-10-30T18:11:36.902Z,100648.78
2022-10-30T18:16:38.596Z,100667.88
2022-10-30T18:21:40.219Z,100671.03
2022-10-30T18:26:42.106Z,100676.91
2022-10-30T18:31:43.533Z,100674.00
2022-10-30T18:36:44.947Z,100673.34
2022-10-30T18:41:47.361Z,100690.31
2022-10-30T18:46:48.875Z,100693.63
2022-10-30T18:51:50.263Z,100692.31
2022-10-30T18:56:51.659Z,100696.72
2022-10-30T19:01:53.240Z,100692.94
2022-10-30T19:06:54.740Z,100693.13
2022-10-30T19:11:56.500Z,100695.19
2022-10-30T19:16:57.891Z,100706.25
2022-10-30T19:21:59.368Z,100714.34
2022-10-30T19:27:00.755Z,100715.38
2022-10-30T19:32:02.138Z,100713.28
2022-10-30T19:37:03.521Z,100709.69
2022-10-30T19:42:05.030Z,100710.06
2022-10-30T19:47:09.705Z,100712.75
2022-10-30T19:52:11.119Z,100704.78
2022-10-30T19:57:14.036Z,100703.06
2022-10-30T20:02:15.471Z,100701.13
2022-10-30T20:07:17.382Z,100701.72
2022-10-30T20:12:18.795Z,100710.03
2022-10-30T20:17:20.203Z,100711.88
2022-10-30T20:22:27.151Z,100727.06
2022-10-30T20:27:29.688Z,100726.59
2022-10-30T20:32:31.163Z,100729.28
2022-10-30T20:37:32.543Z,100728.38
2022-10-30T20:42:37.180Z,100733.75
2022-10-30T20:47:38.818Z,100734.53
2022-10-30T20:52:40.534Z,100742.59
2022-10-30T20:57:41.928Z,100751.03
2022-10-30T21:02:43.424Z,100751.34
2022-10-30T21:07:45.870Z,100748.59
2022-10-30T21:12:47.257Z,100757.84
2022-10-30T21:17:48.654Z,100757.97
2022-10-30T21:22:49.992Z,100754.78
2022-10-30T21:27:51.427Z,100763.13
2022-10-30T21:32:52.979Z,100756.59
2022-10-30T21:37:54.337Z,100761.56
2022-10-30T21:42:58.550Z,100762.97
2022-10-30T21:48:02.854Z,100758.09
2022-10-30T21:53:04.206Z,100758.88
2022-10-30T21:58:05.814Z,100770.25
2022-10-30T22:03:10.299Z,100770.56
2022-10-30T22:08:11.703Z,100761.72
2022-10-30T22:13:13.119Z,100762.75
2022-10-30T22:18:14.485Z,100759.97
2022-10-30T22:23:15.899Z,100758.44
2022-10-30T22:33:20.073Z,100759.69
2022-10-30T22:38:21.448Z,100770.94
2022-10-30T22:43:22.835Z,100765.91
2022-10-30T22:48:24.173Z,100765.66
2022-10-30T22:53:30.110Z,100759.75
2022-10-30T22:58:31.433Z,100767.78
2022-10-30T23:03:32.771Z,100773.19
2022-10-30T23:08:34.803Z,100775.75
2022-10-30T23:13:37.072Z,100777.25
2022-10-30T23:18:38.559Z,100778.94
2022-10-30T23:23:41.434Z,100779.59
2022-10-30T23:28:43.645Z,100776.88
2022-10-30T23:33:49.094Z,100778.09
2022-10-30T23:38:52.806Z,100789.09
2022-10-30T23:43:59.703Z,100782.84
2022-10-30T23:49:02.266Z,100785.56
2022-10-30T23:54:03.994Z,100790.28
2022-10-30T23:59:05.365Z,100788.97
